Time;durP1;ratioP1;P1;durP2;ratioP2;P2;SDS_P1;SDS_P2;PMS_P1;PMS_P2;Temp;Humidity;BMP_temperature;BMP_pressure;BME280_temperature;BME280_humidity;BME280_pressure;Samples;Min_cycle;Max_cycle;Signal;HPM_P1;HPM_P2
2024/04/15 00:00:30;;;;;;;7.03;2.80;;;10.30;99.90;;;;;;5350059;26;20529;-69
2024/04/15 00:03:00;;;;;;;14.07;3.50;;;10.30;99.90;;;;;;5347646;26;20505;-69
2024/04/15 00:05:30;;;;;;;10.83;3.83;;;10.20;99.90;;;;;;5349042;26;20446;-69
2024/04/15 00:08:00;;;;;;;6.40;3.23;;;10.20;99.90;;;;;;5349275;26;20493;-69
2024/04/15 00:10:27;;;;;;;6.10;2.67;;;10.20;99.90;;;;;;5348932;26;20498;-69
2024/04/15 00:12:57;;;;;;;8.33;2.87;;;10.20;99.90;;;;;;5349035;26;20498;-69
2024/04/15 00:15:25;;;;;;;7.07;3.23;;;10.20;99.90;;;;;;5348837;26;20453;-69
2024/04/15 00:17:55;;;;;;;11.23;3.47;;;10.20;99.90;;;;;;5348888;26;21103;-69
2024/04/15 00:20:22;;;;;;;8.90;3.67;;;10.20;99.90;;;;;;5348822;26;20466;-69
2024/04/15 00:22:55;;;;;;;10.73;3.30;;;10.20;99.90;;;;;;5348692;26;20494;-69
2024/04/15 00:25:23;;;;;;;8.00;3.50;;;10.10;99.90;;;;;;5349865;26;20398;-69
2024/04/15 00:27:52;;;;;;;11.00;3.60;;;10.10;99.90;;;;;;5346922;26;20806;-69
2024/04/15 00:30:20;;;;;;;9.47;3.80;;;10.10;99.90;;;;;;5346690;26;20821;-69
2024/04/15 00:32:50;;;;;;;8.83;3.17;;;10.10;99.90;;;;;;5348557;26;20502;-70
2024/04/15 00:35:17;;;;;;;7.60;3.30;;;10.10;99.90;;;;;;5348968;26;20438;-69
2024/04/15 00:37:48;;;;;;;10.60;3.47;;;10.10;99.90;;;;;;5348898;26;20502;-69
2024/04/15 00:40:18;;;;;;;13.87;4.60;;;10.00;99.90;;;;;;5349026;26;20568;-69
2024/04/15 00:42:48;;;;;;;7.50;3.10;;;10.00;99.90;;;;;;5348941;26;20449;-69
2024/04/15 00:45:27;;;;;;;11.07;4.20;;;10.00;99.90;;;;;;5348740;26;20556;-69
2024/04/15 00:47:57;;;;;;;8.10;3.30;;;9.90;99.90;;;;;;5349635;26;20406;-69
2024/04/15 00:50:26;;;;;;;11.20;3.60;;;9.90;99.90;;;;;;5348156;26;21002;-69
2024/04/15 00:52:56;;;;;;;9.40;3.63;;;9.90;99.90;;;;;;5348307;26;20513;-69
2024/04/15 00:55:29;;;;;;;11.00;3.73;;;9.90;99.90;;;;;;5346681;26;20457;-69
2024/04/15 00:57:57;;;;;;;8.30;3.70;;;9.80;99.90;;;;;;5349590;26;20395;-69
2024/04/15 01:00:27;;;;;;;9.43;3.73;;;9.80;99.90;;;;;;5348287;26;20461;-69
2024/04/15 01:02:56;;;;;;;9.70;4.20;;;9.80;99.90;;;;;;5348224;26;20497;-69
2024/04/15 01:05:26;;;;;;;9.67;3.80;;;9.80;99.90;;;;;;5348333;26;20446;-69
2024/04/15 01:07:54;;;;;;;8.13;3.33;;;9.80;99.90;;;;;;5349769;26;20399;-69
2024/04/15 01:10:24;;;;;;;13.77;4.10;;;9.80;99.90;;;;;;5348286;26;20848;-69
2024/04/15 01:12:54;;;;;;;6.60;3.50;;;9.70;99.90;;;;;;5349360;26;20434;-69
2024/04/15 01:15:24;;;;;;;10.18;4.10;;;9.70;99.90;;;;;;5347828;26;20451;-69
2024/04/15 01:17:52;;;;;;;9.27;3.27;;;9.80;99.90;;;;;;5346416;26;20227;-69
2024/04/15 01:20:22;;;;;;;8.37;3.30;;;9.80;99.90;;;;;;5348196;26;20449;-69
2024/04/15 01:22:55;;;;;;;8.27;3.90;;;9.70;99.90;;;;;;5348899;26;20492;-69
2024/04/15 01:25:27;;;;;;;10.37;3.33;;;9.70;99.90;;;;;;5349571;26;20395;-69
2024/04/15 01:27:56;;;;;;;10.20;3.90;;;9.70;99.90;;;;;;5346388;26;20453;-69
2024/04/15 01:30:26;;;;;;;10.40;4.23;;;9.70;99.90;;;;;;5348050;26;20454;-69
2024/04/15 01:32:53;;;;;;;12.47;3.80;;;9.70;99.90;;;;;;5347970;26;20453;-69
2024/04/15 01:35:23;;;;;;;8.93;3.77;;;9.70;99.90;;;;;;5348190;26;20873;-69
2024/04/15 01:37:51;;;;;;;7.70;2.97;;;9.60;99.90;;;;;;5348159;26;20815;-69
2024/04/15 01:40:21;;;;;;;7.30;3.40;;;9.70;99.90;;;;;;5346363;26;20469;-69
2024/04/15 01:42:51;;;;;;;9.70;2.83;;;9.60;99.90;;;;;;5347173;26;20935;-69
2024/04/15 01:45:21;;;;;;;10.83;3.63;;;9.60;99.90;;;;;;5348030;26;20446;-69
2024/04/15 01:47:49;;;;;;;9.40;3.80;;;9.60;99.90;;;;;;5346271;26;21060;-69
2024/04/15 01:50:20;;;;;;;13.00;4.10;;;9.60;99.90;;;;;;5346046;26;20847;-69
2024/04/15 01:52:48;;;;;;;10.73;3.57;;;9.60;99.90;;;;;;5349249;26;20427;-69
2024/04/15 01:55:18;;;;;;;7.97;3.73;;;9.50;99.90;;;;;;5347779;26;20442;-69
2024/04/15 01:57:51;;;;;;;6.47;2.90;;;9.50;99.90;;;;;;5345960;26;20534;-69
2024/04/15 02:00:21;;;;;;;10.93;3.40;;;9.50;99.90;;;;;;5347751;26;20502;-69
2024/04/15 02:02:48;;;;;;;9.30;3.23;;;9.50;99.90;;;;;;5347742;26;20507;-69
2024/04/15 02:05:18;;;;;;;6.70;3.10;;;9.40;99.90;;;;;;5345982;26;20994;-69
2024/04/15 02:07:47;;;;;;;10.10;3.00;;;9.40;99.90;;;;;;5349287;26;20818;-69
2024/04/15 02:10:17;;;;;;;11.55;3.70;;;9.40;99.90;;;;;;5346489;26;20357;-69
2024/04/15 02:12:45;;;;;;;7.97;3.43;;;9.50;99.90;;;;;;5349329;26;20684;-69
2024/04/15 02:15:18;;;;;;;9.00;3.60;;;9.50;99.90;;;;;;5347765;26;20557;-69
2024/04/15 02:17:45;;;;;;;8.50;3.23;;;9.40;99.90;;;;;;5348451;26;20486;-69
2024/04/15 02:20:15;;;;;;;9.93;3.63;;;9.40;99.90;;;;;;5345683;26;21052;-69
2024/04/15 02:22:43;;;;;;;5.97;3.03;;;9.40;99.90;;;;;;5347574;26;20442;-69
2024/04/15 02:25:13;;;;;;;7.47;3.00;;;9.30;99.90;;;;;;5347985;26;20465;-69
2024/04/15 02:27:41;;;;;;;8.27;3.63;;;9.30;99.90;;;;;;5345730;26;20571;-69
2024/04/15 02:30:11;;;;;;;10.17;3.60;;;9.30;99.90;;;;;;5347639;26;20903;-69
2024/04/15 02:32:42;;;;;;;8.90;3.77;;;9.20;99.90;;;;;;5345482;26;20449;-69
2024/04/15 02:35:12;;;;;;;10.17;4.57;;;9.20;99.90;;;;;;5349034;26;20414;-69
2024/04/15 02:37:40;;;;;;;7.17;2.83;;;9.20;99.90;;;;;;5347211;26;20795;-69
2024/04/15 02:40:11;;;;;;;7.37;3.20;;;9.10;99.90;;;;;;5347217;26;20502;-69
2024/04/15 02:42:38;;;;;;;8.13;3.47;;;9.10;99.90;;;;;;5348563;26;20443;-69
2024/04/15 02:45:08;;;;;;;7.30;3.23;;;9.10;99.90;;;;;;5347218;26;20437;-69
2024/04/15 02:47:36;;;;;;;9.30;3.23;;;9.10;99.90;;;;;;5348427;26;20399;-69
2024/04/15 02:50:09;;;;;;;12.43;3.57;;;9.00;99.90;;;;;;5347069;26;20453;-69
2024/04/15 02:52:36;;;;;;;7.60;3.63;;;9.00;99.90;;;;;;5349628;26;20433;-69
2024/04/15 02:55:07;;;;;;;6.63;2.97;;;9.00;99.90;;;;;;5349681;26;20445;-69
2024/04/15 02:57:34;;;;;;;7.90;3.03;;;9.00;99.90;;;;;;5351353;26;20435;-69
2024/04/15 03:00:04;;;;;;;9.27;3.07;;;9.00;99.90;;;;;;5350217;26;20454;-68
2024/04/15 03:02:32;;;;;;;9.17;3.90;;;8.90;99.90;;;;;;5350196;26;20442;-69
2024/04/15 03:05:03;;;;;;;10.87;4.50;;;8.90;99.90;;;;;;5349943;26;20488;-69
2024/04/15 03:07:33;;;;;;;7.10;2.87;;;8.80;99.90;;;;;;5350778;26;20402;-69
2024/04/15 03:10:03;;;;;;;8.70;3.33;;;8.90;99.90;;;;;;5350009;26;20457;-69
2024/04/15 03:12:30;;;;;;;8.80;3.63;;;8.80;99.90;;;;;;5348111;26;20473;-69
2024/04/15 03:15:00;;;;;;;12.27;7.90;;;8.80;99.90;;;;;;5347967;26;20974;-69
2024/04/15 03:17:28;;;;;;;10.33;4.73;;;8.80;99.90;;;;;;5347934;26;20804;-69
2024/04/15 03:19:58;;;;;;;8.87;5.20;;;8.80;99.90;;;;;;5349722;26;20453;-69
2024/04/15 03:22:25;;;;;;;11.80;6.27;;;8.80;99.90;;;;;;5349687;26;20457;-69
2024/04/15 03:24:58;;;;;;;10.03;5.20;;;8.80;99.90;;;;;;5350203;26;20844;-69
2024/04/15 03:27:25;;;;;;;8.37;5.00;;;8.80;99.90;;;;;;5347858;26;21064;-69
2024/04/15 03:29:55;;;;;;;11.00;6.10;;;8.90;99.90;;;;;;5347808;26;20473;-69
2024/04/15 03:32:22;;;;;;;7.30;4.20;;;8.90;99.90;;;;;;5347854;26;20897;-69
2024/04/15 03:34:52;;;;;;;11.03;4.10;;;8.90;99.90;;;;;;5349636;26;20438;-69
2024/04/15 03:37:22;;;;;;;7.13;3.00;;;8.90;99.90;;;;;;5349510;26;20526;-69
2024/04/15 03:39:52;;;;;;;6.47;2.60;;;8.90;99.90;;;;;;5347583;26;20529;-69
2024/04/15 03:42:25;;;;;;;4.57;2.70;;;8.90;99.90;;;;;;5349404;26;20445;-69
2024/04/15 03:44:53;;;;;;;4.97;3.30;;;8.80;99.90;;;;;;5349460;26;20437;-69
2024/04/15 03:47:23;;;;;;;6.10;2.60;;;8.90;99.90;;;;;;5349411;26;20446;-69
2024/04/15 03:49:51;;;;;;;9.10;2.80;;;8.80;99.90;;;;;;5350392;26;20508;-69
2024/04/15 03:52:21;;;;;;;6.03;2.43;;;8.90;99.90;;;;;;5349429;26;20488;-69
2024/04/15 03:54:48;;;;;;;6.57;2.57;;;8.90;99.90;;;;;;5347521;26;20445;-69
2024/04/15 03:57:18;;;;;;;6.20;2.73;;;8.80;99.90;;;;;;5349368;26;20504;-69
2024/04/15 03:59:48;;;;;;;5.70;2.40;;;8.80;99.90;;;;;;5349293;26;20521;-69
2024/04/15 04:02:18;;;;;;;4.87;2.90;;;8.80;99.90;;;;;;5349245;26;20493;-69
2024/04/15 04:04:47;;;;;;;6.40;2.47;;;8.80;99.90;;;;;;5346933;26;20845;-69
2024/04/15 04:07:18;;;;;;;5.73;2.40;;;8.80;99.90;;;;;;5349288;26;20442;-69
2024/04/15 04:09:45;;;;;;;6.77;2.30;;;8.80;99.90;;;;;;5350099;26;20514;-69
2024/04/15 04:12:15;;;;;;;4.37;2.37;;;8.80;99.90;;;;;;5349495;26;21093;-69
2024/04/15 04:14:43;;;;;;;5.10;2.67;;;8.80;99.90;;;;;;5347311;26;20865;-69
2024/04/15 04:17:16;;;;;;;6.23;3.07;;;8.80;99.90;;;;;;5349124;26;20521;-69
2024/04/15 04:19:43;;;;;;;7.07;3.07;;;8.80;99.90;;;;;;5347209;26;20481;-69
2024/04/15 04:22:13;;;;;;;10.00;2.53;;;8.80;99.90;;;;;;5348989;26;20494;-69
2024/04/15 04:24:41;;;;;;;5.17;2.57;;;8.80;99.90;;;;;;5348786;26;20576;-69
2024/04/15 04:27:11;;;;;;;6.33;2.53;;;8.80;99.90;;;;;;5348774;26;20545;-69
2024/04/15 04:29:38;;;;;;;5.13;2.80;;;8.70;99.90;;;;;;5348776;26;20565;-69
2024/04/15 04:32:08;;;;;;;7.37;2.80;;;8.70;99.90;;;;;;5348962;26;20441;-69
2024/04/15 04:34:38;;;;;;;4.80;2.63;;;8.70;99.90;;;;;;5347005;26;20579;-69
2024/04/15 04:37:09;;;;;;;7.97;2.33;;;8.70;99.90;;;;;;5348826;26;20437;-69
2024/04/15 04:39:36;;;;;;;4.67;2.40;;;8.70;99.90;;;;;;5347025;26;20518;-69
2024/04/15 04:42:06;;;;;;;5.10;2.40;;;8.70;99.90;;;;;;5348759;26;20490;-69
2024/04/15 04:44:34;;;;;;;7.07;3.20;;;8.70;99.90;;;;;;5349485;26;20442;-69
2024/04/15 04:47:04;;;;;;;4.70;1.97;;;8.70;99.90;;;;;;5348706;26;20833;-69
2024/04/15 04:49:31;;;;;;;5.50;2.80;;;8.70;99.90;;;;;;5348828;26;21046;-69
2024/04/15 04:52:04;;;;;;;4.40;2.50;;;8.70;99.90;;;;;;5346775;26;20454;-69
2024/04/15 04:54:31;;;;;;;6.10;3.17;;;8.70;99.90;;;;;;5348980;26;20807;-69
2024/04/15 04:57:01;;;;;;;6.87;3.57;;;8.70;99.90;;;;;;5348603;26;20445;-69
2024/04/15 04:59:28;;;;;;;6.93;3.07;;;8.70;99.90;;;;;;5346653;26;20560;-68
2024/04/15 05:01:58;;;;;;;8.37;5.33;;;8.70;99.90;;;;;;5346768;26;20465;-69
2024/04/15 05:04:27;;;;;;;8.00;3.83;;;8.60;99.90;;;;;;5349801;26;20399;-68
2024/04/15 05:06:57;;;;;;;4.20;3.40;;;8.60;99.90;;;;;;5348411;26;20488;-69
2024/04/15 05:09:27;;;;;;;4.67;2.77;;;8.60;99.90;;;;;;5349614;26;20510;-69
2024/04/15 05:11:57;;;;;;;8.43;3.07;;;8.60;99.90;;;;;;5346588;26;20505;-69
2024/04/15 05:14:24;;;;;;;5.30;2.93;;;8.60;99.90;;;;;;5348163;26;20457;-69
2024/04/15 05:16:54;;;;;;;7.60;3.27;;;8.70;99.90;;;;;;5347403;26;20441;-69
2024/04/15 05:19:22;;;;;;;3.30;2.83;;;8.70;99.90;;;;;;5347867;26;20998;-69
2024/04/15 05:21:52;;;;;;;8.30;2.37;;;8.70;99.90;;;;;;5346397;26;20472;-69
2024/04/15 05:24:19;;;;;;;5.50;2.60;;;8.70;99.90;;;;;;5347997;26;20469;-69
2024/04/15 05:26:52;;;;;;;4.10;2.03;;;8.70;99.90;;;;;;5348193;26;20446;-69
2024/04/15 05:29:24;;;;;;;8.90;2.67;;;8.70;99.90;;;;;;5348955;26;20994;-69
2024/04/15 05:31:54;;;;;;;16.00;9.70;;;8.70;99.90;;;;;;5348127;26;20494;-69
2024/04/15 05:34:21;;;;;;;10.93;4.30;;;8.70;99.90;;;;;;5346247;26;20458;-69
2024/04/15 05:36:51;;;;;;;6.50;3.13;;;8.70;99.90;;;;;;5347999;26;20553;-69
2024/04/15 05:39:19;;;;;;;7.63;5.97;;;8.70;99.90;;;;;;5347926;26;21046;-69
2024/04/15 05:41:51;;;;;;;6.03;3.43;;;8.70;99.90;;;;;;5347796;26;20494;-69
2024/04/15 05:44:19;;;;;;;6.60;2.93;;;8.80;99.90;;;;;;5349422;26;20406;-69
2024/04/15 05:46:54;;;;;;;5.80;2.93;;;8.80;99.90;;;;;;5347935;26;20442;-69
2024/04/15 05:49:21;;;;;;;6.03;3.20;;;8.80;99.90;;;;;;5345985;26;20501;-69
2024/04/15 05:51:51;;;;;;;6.60;3.23;;;8.80;99.90;;;;;;5347993;26;20493;-69
2024/04/15 05:54:18;;;;;;;7.37;3.10;;;8.80;99.90;;;;;;5347852;26;20666;-69
2024/04/15 05:56:51;;;;;;;4.30;3.27;;;8.90;99.90;;;;;;5348248;26;20445;-69
2024/04/15 05:59:19;;;;;;;6.73;3.13;;;8.90;99.90;;;;;;5346099;26;20514;-69
2024/04/15 06:01:49;;;;;;;5.53;3.50;;;8.90;99.90;;;;;;5347990;26;20874;-69
2024/04/15 06:04:17;;;;;;;9.90;5.57;;;8.90;99.90;;;;;;5348084;26;20551;-69
2024/04/15 06:06:47;;;;;;;6.57;3.67;;;8.90;99.90;;;;;;5347725;26;20457;-69
2024/04/15 06:09:14;;;;;;;5.47;3.30;;;9.00;99.90;;;;;;5348525;26;20505;-70
2024/04/15 06:11:44;;;;;;;7.40;3.37;;;9.10;99.90;;;;;;5347729;26;20547;-69
2024/04/15 06:14:14;;;;;;;10.60;4.90;;;9.20;99.90;;;;;;5347469;26;20637;-69
2024/04/15 06:16:44;;;;;;;8.77;4.00;;;9.30;99.90;;;;;;5347435;26;20437;-70
2024/04/15 06:19:12;;;;;;;6.93;3.90;;;9.50;99.90;;;;;;5348775;26;20457;-69
2024/04/15 06:21:42;;;;;;;6.73;3.90;;;9.60;99.90;;;;;;5347716;26;20882;-69
2024/04/15 06:24:09;;;;;;;9.43;4.53;;;9.80;99.90;;;;;;5348514;26;20868;-69
2024/04/15 06:26:40;;;;;;;6.23;4.57;;;10.00;99.90;;;;;;5347605;26;20982;-69
2024/04/15 06:29:08;;;;;;;7.67;4.50;;;10.10;99.90;;;;;;5348516;26;20505;-69
2024/04/15 06:31:40;;;;;;;8.83;4.83;;;10.30;99.90;;;;;;5347589;26;20501;-69
2024/04/15 06:34:07;;;;;;;7.30;4.50;;;10.40;99.90;;;;;;5348411;26;20445;-69
2024/04/15 06:36:38;;;;;;;8.67;3.90;;;10.50;99.90;;;;;;5348034;26;20514;-69
2024/04/15 06:39:05;;;;;;;8.17;4.50;;;10.70;99.90;;;;;;5347921;26;20457;-70
2024/04/15 06:41:35;;;;;;;7.77;4.47;;;10.80;99.90;;;;;;5347299;26;20835;-70
2024/04/15 06:44:02;;;;;;;6.03;4.57;;;10.90;99.90;;;;;;5347132;26;20442;-69
2024/04/15 06:46:32;;;;;;;5.33;4.47;;;11.00;99.90;;;;;;5347144;26;20542;-69
2024/04/15 06:49:03;;;;;;;10.87;5.63;;;11.10;99.90;;;;;;5346888;26;20446;-70
2024/04/15 06:51:36;;;;;;;7.67;4.83;;;11.10;99.90;;;;;;5345116;26;20513;-69
2024/04/15 06:54:05;;;;;;;7.00;5.43;;;11.20;99.90;;;;;;5347591;26;20825;-70
2024/04/15 06:56:36;;;;;;;6.10;4.50;;;11.30;99.90;;;;;;5345128;26;20457;-69
2024/04/15 06:59:03;;;;;;;7.37;4.97;;;11.40;99.90;;;;;;5348418;26;20501;-70
2024/04/15 07:01:36;;;;;;;6.67;4.80;;;11.50;99.90;;;;;;5347223;26;20501;-70
2024/04/15 07:04:08;;;;;;;6.13;4.90;;;11.60;99.90;;;;;;5346863;26;20445;-69
2024/04/15 07:06:38;;;;;;;7.97;4.90;;;11.60;99.90;;;;;;5344784;26;20500;-69
2024/04/15 07:09:06;;;;;;;6.87;5.03;;;11.70;99.90;;;;;;5346540;26;20457;-70
2024/04/15 07:11:36;;;;;;;10.53;6.37;;;11.70;99.90;;;;;;5344590;26;20502;-69
2024/04/15 07:14:04;;;;;;;9.57;6.10;;;11.80;99.90;;;;;;5345155;26;20506;-70
2024/04/15 07:16:34;;;;;;;9.20;5.87;;;11.90;99.90;;;;;;5344528;26;20514;-70
2024/04/15 07:19:01;;;;;;;6.10;5.33;;;12.00;99.90;;;;;;5347427;26;20408;-70
2024/04/15 07:21:34;;;;;;;10.90;6.30;;;12.10;99.90;;;;;;5346254;26;20966;-69
2024/04/15 07:24:01;;;;;;;6.00;5.40;;;12.20;99.90;;;;;;5347324;26;21026;-69
2024/04/15 07:26:31;;;;;;;7.47;6.20;;;12.30;99.90;;;;;;5346312;26;20817;-70
2024/04/15 07:28:59;;;;;;;8.00;5.60;;;12.40;99.90;;;;;;5346045;26;20840;-70
2024/04/15 07:31:29;;;;;;;7.90;5.43;;;12.60;99.90;;;;;;5346513;26;20597;-70
2024/04/15 07:33:56;;;;;;;6.60;5.60;;;12.60;99.90;;;;;;5346021;26;20799;-70
2024/04/15 07:36:28;;;;;;;8.70;5.83;;;12.60;99.90;;;;;;5345834;26;20842;-69
2024/04/15 07:38:58;;;;;;;7.47;5.93;;;12.50;99.90;;;;;;5346946;26;20776;-70
2024/04/15 07:41:28;;;;;;;8.87;6.30;;;12.40;99.90;;;;;;5349627;26;20493;-69
2024/04/15 07:43:56;;;;;;;8.90;6.10;;;12.40;99.90;;;;;;5349410;26;20986;-70
2024/04/15 07:46:26;;;;;;;7.30;6.53;;;12.30;99.90;;;;;;5349442;26;20441;-70
2024/04/15 07:48:53;;;;;;;9.40;6.60;;;12.30;99.90;;;;;;5347545;26;20452;-70
2024/04/15 07:51:24;;;;;;;12.00;7.10;;;12.30;99.90;;;;;;5347503;26;20457;-70
2024/04/15 07:53:58;;;;;;;11.70;7.10;;;12.30;99.90;;;;;;5347545;26;20502;-70
2024/04/15 07:56:27;;;;;;;9.53;6.90;;;12.30;99.90;;;;;;5350347;26;20872;-70
2024/04/15 07:58:55;;;;;;;9.60;6.27;;;12.40;99.90;;;;;;5350019;26;20779;-70
2024/04/15 08:01:25;;;;;;;8.77;6.23;;;12.50;99.90;;;;;;5348414;26;20462;-69
2024/04/15 08:03:52;;;;;;;11.83;6.80;;;12.50;99.90;;;;;;5351126;26;20871;-70
2024/04/15 08:06:23;;;;;;;10.67;6.40;;;12.50;99.90;;;;;;5348331;26;20505;-69
2024/04/15 08:08:50;;;;;;;9.63;6.27;;;12.60;99.90;;;;;;5348584;26;20505;-71
2024/04/15 08:11:23;;;;;;;11.33;7.20;;;12.50;99.90;;;;;;5348117;26;20453;-70
2024/04/15 08:13:51;;;;;;;10.90;5.93;;;12.50;99.90;;;;;;5351142;26;21038;-69
2024/04/15 08:16:21;;;;;;;8.13;7.13;;;12.60;99.90;;;;;;5349950;26;20441;-69
2024/04/15 08:18:49;;;;;;;12.53;6.50;;;12.60;99.90;;;;;;5348258;26;20453;-70
2024/04/15 08:21:19;;;;;;;10.67;7.30;;;12.50;99.90;;;;;;5350035;26;20552;-69
2024/04/15 08:23:47;;;;;;;11.57;7.03;;;12.60;99.90;;;;;;5350635;26;20542;-69
2024/04/15 08:26:17;;;;;;;10.30;6.90;;;12.60;99.90;;;;;;5349737;26;20450;-70
2024/04/15 08:28:48;;;;;;;9.57;6.87;;;12.70;99.90;;;;;;5350704;26;20439;-69
2024/04/15 08:31:18;;;;;;;11.83;6.73;;;12.70;99.90;;;;;;5349742;26;20516;-69
2024/04/15 08:33:46;;;;;;;10.33;7.07;;;12.60;99.90;;;;;;5348016;26;20510;-69
2024/04/15 08:36:16;;;;;;;11.07;7.60;;;12.70;99.90;;;;;;5349578;26;20517;-70
2024/04/15 08:38:44;;;;;;;9.40;6.67;;;12.70;99.90;;;;;;5349629;26;20494;-69
2024/04/15 08:41:21;;;;;;;7.07;6.37;;;12.70;99.90;;;;;;5349571;26;20497;-69
2024/04/15 08:43:54;;;;;;;10.97;7.47;;;12.70;99.90;;;;;;5347735;26;20790;-69
2024/04/15 08:46:29;;;;;;;10.47;6.80;;;12.70;99.90;;;;;;5347664;26;20465;-69
2024/04/15 08:48:56;;;;;;;14.47;7.60;;;12.70;99.90;;;;;;5347784;26;20865;-69
2024/04/15 08:51:27;;;;;;;10.90;8.00;;;12.80;99.90;;;;;;5350079;26;20449;-69
2024/04/15 08:53:55;;;;;;;8.37;7.37;;;12.80;99.90;;;;;;5350641;26;20498;-69
2024/04/15 08:56:27;;;;;;;10.90;7.00;;;12.90;99.90;;;;;;5347378;26;20558;-69
2024/04/15 08:58:58;;;;;;;10.57;8.10;;;13.00;99.90;;;;;;5347661;26;20461;-70
2024/04/15 09:01:33;;;;;;;9.07;7.50;;;13.20;99.90;;;;;;5349804;26;20441;-70
2024/04/15 09:04:01;;;;;;;10.63;7.60;;;13.30;99.90;;;;;;5350180;26;20406;-70
2024/04/15 09:06:34;;;;;;;12.57;8.13;;;13.40;99.90;;;;;;5348421;26;20528;-70
2024/04/15 09:09:01;;;;;;;8.70;6.97;;;13.40;99.90;;;;;;5349173;26;20536;-71
2024/04/15 09:11:36;;;;;;;11.10;8.17;;;13.50;99.90;;;;;;5348271;26;20502;-70
2024/04/15 09:14:07;;;;;;;10.73;8.30;;;13.60;99.90;;;;;;5349478;26;20927;-70
2024/04/15 09:16:37;;;;;;;14.50;9.57;;;13.70;99.90;;;;;;5348072;26;20770;-71
2024/04/15 09:19:08;;;;;;;10.37;8.87;;;13.80;99.90;;;;;;5349506;26;20763;-70
2024/04/15 09:21:39;;;;;;;11.20;8.60;;;13.90;99.90;;;;;;5349459;26;20442;-70
2024/04/15 09:24:09;;;;;;;11.40;8.60;;;14.00;99.90;;;;;;5346349;26;20835;-70
2024/04/15 09:26:39;;;;;;;9.97;8.93;;;14.10;99.90;;;;;;5348078;26;20597;-70
2024/04/15 09:29:12;;;;;;;10.07;9.07;;;14.20;99.90;;;;;;5349623;26;20394;-70
2024/04/15 09:31:42;;;;;;;13.57;9.80;;;14.20;99.90;;;;;;5347977;26;20553;-70
2024/04/15 09:34:10;;;;;;;9.87;8.87;;;14.20;99.90;;;;;;5348045;26;20461;-70
2024/04/15 09:36:51;;;;;;;13.00;8.77;;;14.20;99.90;;;;;;5348282;26;20494;-70
2024/04/15 09:39:20;;;;;;;12.47;10.07;;;14.20;99.90;;;;;;5349183;26;21042;-70
2024/04/15 09:41:52;;;;;;;13.90;9.63;;;14.20;99.90;;;;;;5348062;26;20553;-71
2024/04/15 09:44:23;;;;;;;11.47;9.23;;;14.20;99.90;;;;;;5349177;26;20438;-70
2024/04/15 09:46:54;;;;;;;11.60;9.70;;;14.10;99.90;;;;;;5349430;26;20466;-70
2024/04/15 09:49:23;;;;;;;15.63;10.93;;;14.00;99.90;;;;;;5349384;26;20454;-70
2024/04/15 09:51:54;;;;;;;13.87;10.53;;;13.90;99.90;;;;;;5347918;26;20974;-70
2024/04/15 09:54:30;;;;;;;12.87;10.57;;;13.80;99.90;;;;;;5347914;26;20826;-70
2024/04/15 09:57:06;;;;;;;12.67;10.63;;;13.80;99.90;;;;;;5349241;26;20398;-70
2024/04/15 09:59:39;;;;;;;12.37;10.50;;;13.70;99.90;;;;;;5349186;26;20453;-70
2024/04/15 10:02:20;;;;;;;12.87;10.83;;;13.70;99.90;;;;;;5348092;26;20490;-70
2024/04/15 10:04:53;;;;;;;13.73;10.67;;;13.70;99.90;;;;;;5348774;26;20398;-70
2024/04/15 10:07:23;;;;;;;12.97;11.30;;;13.70;99.90;;;;;;5349398;26;20772;-70
2024/04/15 10:09:51;;;;;;;11.77;10.57;;;13.80;99.90;;;;;;5345721;26;21069;-70
2024/04/15 10:12:22;;;;;;;12.90;9.23;;;13.80;99.90;;;;;;5347624;26;20497;-70
2024/04/15 10:14:52;;;;;;;14.53;9.20;;;13.80;99.90;;;;;;5345866;26;20978;-70
2024/04/15 10:17:22;;;;;;;12.20;9.33;;;13.80;99.90;;;;;;5348905;26;20410;-70
2024/04/15 10:19:50;;;;;;;12.07;8.87;;;13.90;99.90;;;;;;5349565;26;20531;-70
2024/04/15 10:22:21;;;;;;;12.60;8.73;;;13.90;99.90;;;;;;5348896;26;20834;-70
2024/04/15 10:24:49;;;;;;;10.00;8.83;;;13.90;99.90;;;;;;5345954;26;20880;-70
2024/04/15 10:27:19;;;;;;;10.57;8.23;;;13.90;99.90;;;;;;5347634;26;20807;-70
2024/04/15 10:29:49;;;;;;;11.80;8.70;;;13.90;99.90;;;;;;5348743;26;20494;-70
2024/04/15 10:32:27;;;;;;;10.10;8.30;;;13.80;99.90;;;;;;5348959;26;20446;-70
2024/04/15 10:34:55;;;;;;;14.27;9.80;;;13.70;99.90;;;;;;5348681;26;20414;-70
2024/04/15 10:37:31;;;;;;;11.80;8.83;;;13.60;99.90;;;;;;5347993;26;20441;-70
2024/04/15 10:40:03;;;;;;;11.90;8.00;;;13.60;99.90;;;;;;5348537;26;20854;-70
2024/04/15 10:42:33;;;;;;;10.60;8.50;;;13.50;99.90;;;;;;5348564;26;20407;-70
2024/04/15 10:45:01;;;;;;;11.53;9.40;;;13.50;99.90;;;;;;5347807;26;20549;-70
2024/04/15 10:47:33;;;;;;;9.77;8.83;;;13.40;99.90;;;;;;5347810;26;20552;-70
2024/04/15 10:50:04;;;;;;;13.20;9.83;;;13.40;99.90;;;;;;5348273;26;20484;-70
2024/04/15 10:52:35;;;;;;;12.47;9.37;;;13.40;99.90;;;;;;5347025;26;20458;-70
2024/04/15 10:55:03;;;;;;;10.23;8.07;;;13.40;99.90;;;;;;5347615;26;20502;-70
2024/04/15 10:57:33;;;;;;;12.00;8.50;;;13.50;99.90;;;;;;5346798;26;20446;-70
2024/04/15 11:00:00;;;;;;;8.57;7.77;;;13.50;99.90;;;;;;5346876;26;20789;-70
2024/04/15 11:02:33;;;;;;;9.07;8.23;;;13.60;99.90;;;;;;5346803;26;20517;-70
2024/04/15 11:05:01;;;;;;;9.13;8.00;;;13.70;99.90;;;;;;5344745;26;20807;-70
2024/04/15 11:07:31;;;;;;;10.33;7.70;;;13.80;99.90;;;;;;5346534;26;20445;-70
2024/04/15 11:09:59;;;;;;;8.17;7.37;;;13.80;99.90;;;;;;5346377;26;20496;-70
2024/04/15 11:12:29;;;;;;;11.23;8.53;;;13.90;99.90;;;;;;5346412;26;20487;-70
2024/04/15 11:14:57;;;;;;;8.80;7.60;;;14.00;99.90;;;;;;5346937;26;20434;-70
2024/04/15 11:17:27;;;;;;;8.83;7.93;;;14.10;99.90;;;;;;5347977;26;20453;-70
2024/04/15 11:20:02;;;;;;;8.43;7.57;;;14.20;99.90;;;;;;5350627;26;20501;-71
2024/04/15 11:22:32;;;;;;;5.80;5.30;;;14.30;99.90;;;;;;5350087;26;20445;-70
2024/04/15 11:25:02;;;;;;;8.60;7.30;;;14.30;99.90;;;;;;5349914;26;21001;-70
2024/04/15 11:27:35;;;;;;;8.57;6.80;;;14.30;99.90;;;;;;5349880;26;20828;-71
2024/04/15 11:30:07;;;;;;;11.30;6.67;;;14.40;99.90;;;;;;5349961;26;20449;-70
2024/04/15 11:32:37;;;;;;;8.20;5.83;;;14.40;99.90;;;;;;5349626;26;20489;-70
2024/04/15 11:35:10;;;;;;;9.47;6.33;;;14.50;99.90;;;;;;5350296;26;20446;-70
2024/04/15 11:37:40;;;;;;;10.13;6.20;;;14.50;99.90;;;;;;5350449;26;20398;-70
2024/04/15 11:40:11;;;;;;;7.37;5.53;;;14.60;99.90;;;;;;5349289;26;20465;-70
2024/04/15 11:42:42;;;;;;;5.83;4.77;;;14.60;99.90;;;;;;5350439;26;20454;-71
2024/04/15 11:45:14;;;;;;;5.10;4.20;;;14.60;99.90;;;;;;5350658;26;20778;-70
2024/04/15 11:47:44;;;;;;;5.20;4.70;;;14.60;99.90;;;;;;5347624;26;20457;-70
2024/04/15 11:50:14;;;;;;;6.63;4.37;;;14.60;99.90;;;;;;5349752;26;20450;-70
2024/04/15 11:52:44;;;;;;;5.03;3.97;;;14.60;99.90;;;;;;5347806;26;20497;-70
2024/04/15 11:55:18;;;;;;;6.07;4.10;;;14.60;99.90;;;;;;5349238;26;20457;-71
2024/04/15 11:57:49;;;;;;;6.47;4.40;;;14.60;99.90;;;;;;5349208;26;20560;-70
2024/04/15 12:00:17;;;;;;;6.67;3.47;;;14.70;99.90;;;;;;5350063;26;20461;-71
2024/04/15 12:02:49;;;;;;;4.40;3.53;;;14.70;99.90;;;;;;5347332;26;20450;-70
2024/04/15 12:05:19;;;;;;;6.97;3.40;;;14.80;99.80;;;;;;5350111;26;20951;-70
2024/04/15 12:07:49;;;;;;;5.70;3.57;;;14.80;99.80;;;;;;5348956;26;21038;-70
2024/04/15 12:10:17;;;;;;;6.83;4.30;;;14.80;99.70;;;;;;5349084;26;20450;-70
2024/04/15 12:12:47;;;;;;;7.90;3.57;;;14.80;99.80;;;;;;5349196;26;20488;-70
2024/04/15 12:15:14;;;;;;;6.23;3.23;;;14.80;99.70;;;;;;5349168;26;20528;-70
2024/04/15 12:17:45;;;;;;;4.37;3.10;;;14.90;99.60;;;;;;5348972;26;20498;-70
2024/04/15 12:20:12;;;;;;;6.30;3.60;;;14.90;99.30;;;;;;5350014;26;20453;-70
2024/04/15 12:22:45;;;;;;;5.67;2.50;;;14.90;99.00;;;;;;5349294;26;20795;-71
2024/04/15 12:25:13;;;;;;;5.33;2.70;;;14.90;99.10;;;;;;5350135;26;20410;-71
2024/04/15 12:27:45;;;;;;;4.70;3.30;;;14.90;99.20;;;;;;5348960;26;20441;-70
2024/04/15 12:30:12;;;;;;;3.60;3.03;;;14.90;98.90;;;;;;5351104;26;21013;-70
2024/04/15 12:32:43;;;;;;;4.23;2.77;;;14.90;99.00;;;;;;5350251;26;20449;-70
2024/04/15 12:35:11;;;;;;;4.47;2.43;;;15.00;99.10;;;;;;5347672;26;20513;-70
2024/04/15 12:37:41;;;;;;;4.63;2.47;;;15.10;99.00;;;;;;5349364;26;21026;-71
2024/04/15 12:40:11;;;;;;;6.53;3.13;;;15.10;98.80;;;;;;5348872;26;20513;-71
2024/04/15 12:42:42;;;;;;;4.47;2.30;;;15.10;98.60;;;;;;5349938;26;20487;-71
2024/04/15 12:45:12;;;;;;;4.47;3.27;;;15.10;98.50;;;;;;5349890;26;20406;-71
2024/04/15 12:47:42;;;;;;;5.77;2.93;;;15.10;98.40;;;;;;5349069;26;20466;-71
2024/04/15 12:50:09;;;;;;;4.63;2.73;;;15.10;98.50;;;;;;5349817;26;20446;-74
2024/04/15 12:52:42;;;;;;;6.13;2.80;;;15.10;98.40;;;;;;5346865;26;20458;-71
2024/04/15 12:55:13;;;;;;;4.17;2.83;;;15.10;98.50;;;;;;5349810;26;20398;-70
2024/04/15 12:57:43;;;;;;;5.77;2.70;;;15.10;98.30;;;;;;5348959;26;20442;-71
2024/04/15 13:00:11;;;;;;;5.40;2.93;;;15.10;98.20;;;;;;5348338;26;20491;-70